Flight Track Log - Related Links

Times and Time Zones

All times are in EDT time to prevent confusion due to time zone crossing. See the N441R flight status page for this flight to view local times or setup timezone preferences in your user account.

Time Position Orientation Groundspeed Altitude Reporting Facility
EDT Latitude Longitude Course Direction KTS MPH feet Rate Location/Type
Wed 06:38:31 PM 30.3206 -87.6256 36° Northeast 163 188 2,600  Level Jacksonville Center
Wed 06:39:44 PM 30.3614 -87.5914 36° Northeast 150 173 5,300 2,104 Climbing Jacksonville Center
Wed 06:40:45 PM 30.4022 -87.5597 34° Northeast 170 196 7,300 1,781 Climbing Jacksonville Center
Wed 06:41:52 PM 30.4436 -87.5136 44° Northeast 193 222 9,100 1,690 Climbing Jacksonville Center
Wed 06:43:07 PM 30.4914 -87.4628 43° Northeast 213 245 11,300 1,867 Climbing Jacksonville Center
Wed 06:44:07 PM 30.5283 -87.4261 41° Northeast 194 223 13,300 1,950 Climbing Jacksonville Center
Wed 06:45:07 PM 30.5672 -87.3844 43° Northeast 189 217 15,200 1,900 Climbing Jacksonville Center
Wed 06:46:07 PM 30.6161 -87.3578 25° Northeast 183 211 17,100 1,750 Climbing Jacksonville Center
Wed 06:47:07 PM 30.6628 -87.3358 22° Northeast 183 211 18,700 1,500 Climbing Jacksonville Center
Wed 06:48:07 PM 30.7139 -87.3117 22° Northeast 183 211 20,100 1,350 Climbing Jacksonville Center
Wed 06:49:07 PM 30.7631 -87.2803 29° Northeast 188 216 21,400 1,350 Climbing Jacksonville Center
Wed 06:50:07 PM 30.8081 -87.2436 35° Northeast 193 222 22,800 1,200 Climbing Jacksonville Center
Wed 06:51:07 PM 30.8572 -87.2072 32° Northeast 193 222 23,800 1,050 Climbing Jacksonville Center
Wed 06:52:07 PM 30.9044 -87.1681 35° Northeast 198 228 24,900 1,000 Climbing Jacksonville Center
Wed 06:53:07 PM 30.9539 -87.1292 34° Northeast 203 234 25,800 900 Climbing Jacksonville Center
Wed 06:54:07 PM 31.0031 -87.0925 33° Northeast 203 234 26,700 600 Climbing Jacksonville Center
Wed 06:55:07 PM 31.0547 -87.0489 36° Northeast 203 234 27,000 150 Climbing Jacksonville Center
Wed 06:56:07 PM 31.1125 -87.0028 34° Northeast 221 254 27,000  Level Jacksonville Center
Wed 06:57:07 PM 31.1703 -86.9569 34° Northeast 239 275 27,000  Level Jacksonville Center
Wed 06:58:07 PM 31.2325 -86.9086 34° Northeast 246 283 27,000  Level Jacksonville Center
Wed 07:00:32 PM 31.3947 -86.7828 33° Northeast 284 327 27,000  Level Atlanta Center
Wed 07:01:32 PM 31.4439 -86.7381 38° Northeast 278 320 27,000  Level Atlanta Center
Wed 07:02:32 PM 31.5053 -86.6889 34° Northeast 264 304 27,000  Level Atlanta Center
Wed 07:03:32 PM 31.5669 -86.6394 34° Northeast 269 310 27,000  Level Atlanta Center
Wed 07:04:32 PM 31.6286 -86.5875 36° Northeast 269 310 27,000  Level Atlanta Center
Wed 07:05:32 PM 31.6900 -86.5381 34° Northeast 269 310 27,000  Level Atlanta Center
Wed 07:06:32 PM 31.7536 -86.4861 35° Northeast 269 310 27,000  Level Atlanta Center
Wed 07:07:32 PM 31.8153 -86.4389 33° Northeast 269 310 27,000  Level Atlanta Center
Wed 07:08:32 PM 31.8886 -86.4236 10° North 264 304 27,000  Level Atlanta Center
Wed 07:09:32 PM 31.9783 -86.4139 North 275 316 27,000  Level Atlanta Center
Wed 07:10:32 PM 32.0558 -86.3986 North 286 329 27,000  Level Atlanta Center
Wed 07:11:32 PM 32.1189 -86.3881 North 263 303 27,000  Level Atlanta Center
Wed 07:12:32 PM 32.1942 -86.3778 North 263 303 27,000  Level Atlanta Center
Wed 07:13:32 PM 32.2781 -86.3603 10° North 263 303 27,000  Level Atlanta Center
Wed 07:14:32 PM 32.3572 -86.3625 359° North 271 312 27,000  Level Atlanta Center
Wed 07:15:32 PM 32.4275 -86.4011 335° Northwest 271 312 27,000  Level Atlanta Center
Wed 07:16:32 PM 32.5083 -86.4306 343° North 290 334 27,000  Level Atlanta Center
Wed 07:17:32 PM 32.5850 -86.4622 341° North 290 334 27,000  Level Atlanta Center
Wed 07:18:32 PM 32.6614 -86.4914 342° North 290 334 27,000  Level Atlanta Center
Wed 07:19:32 PM 32.7381 -86.5231 341° North 285 328 27,000  Level Atlanta Center
Wed 07:20:32 PM 32.8128 -86.5525 342° North 285 328 27,000  Level Atlanta Center
Wed 07:21:32 PM 32.8872 -86.5817 342° North 285 328 27,000  Level Atlanta Center
Wed 07:22:32 PM 32.9639 -86.6136 341° North 285 328 27,000  Level Atlanta Center
Wed 07:23:32 PM 33.0425 -86.6408 344° North 285 328 27,000  Level Atlanta Center
Wed 07:24:32 PM 33.1192 -86.6728 341° North 285 328 27,000  Level Atlanta Center
Wed 07:25:32 PM 33.1975 -86.7075 340° North 285 328 27,000  Level Atlanta Center
Wed 07:26:32 PM 33.2761 -86.7397 341° North 285 328 27,000  Level Atlanta Center
Wed 07:27:32 PM 33.3444 -86.7667 342° North 285 328 27,000  Level Atlanta Center
Wed 07:28:32 PM 33.4231 -86.7992 341° North 285 328 27,000  Level Atlanta Center
Wed 07:29:32 PM 33.5039 -86.8289 343° North 290 334 27,000  Level Atlanta Center
Wed 07:30:32 PM 33.5825 -86.8614 341° North 290 334 27,000  Level Atlanta Center
Wed 07:31:32 PM 33.6592 -86.8839 346° North 290 334 27,000  Level Atlanta Center
Wed 07:32:32 PM 33.7208 -86.8336 34° Northeast 249 287 27,000  Level Atlanta Center
Wed 07:33:32 PM 33.7725 -86.7653 48° Northeast 246 283 27,000  Level Atlanta Center
Wed 07:34:32 PM 33.8239 -86.6994 47° Northeast 252 290 27,000  Level Atlanta Center
Wed 07:35:32 PM 33.8756 -86.6333 47° Northeast 262 302 27,000  Level Atlanta Center
Wed 07:36:32 PM 33.9228 -86.5697 48° Northeast 262 302 27,000  Level Atlanta Center
Wed 07:37:32 PM 33.9719 -86.5061 47° Northeast 262 302 27,000  Level Atlanta Center
Wed 07:38:32 PM 34.0214 -86.4422 47° Northeast 262 302 27,000  Level Atlanta Center
Wed 07:39:32 PM 34.0683 -86.3783 48° Northeast 262 302 27,000  Level Atlanta Center
Wed 07:40:32 PM 34.1175 -86.3144 47° Northeast 256 295 27,000  Level Atlanta Center
Wed 07:41:32 PM 34.1667 -86.2506 47° Northeast 256 295 27,000  Level Atlanta Center
Wed 07:42:32 PM 34.2244 -86.1767 47° Northeast 256 295 27,000  Level Atlanta Center
Wed 07:43:32 PM 34.2714 -86.1125 48° Northeast 256 295 27,000  Level Atlanta Center
Wed 07:44:32 PM 34.3206 -86.0483 47° Northeast 256 295 27,000  Level Atlanta Center
Wed 07:45:32 PM 34.3694 -85.9842 47° Northeast 256 295 27,000  Level Atlanta Center
Wed 07:47:32 PM 34.4675 -85.8553 47° Northeast 256 295 27,000  Level Atlanta Center
Wed 07:48:32 PM 34.5081 -85.8033 47° Northeast 256 295 27,000  Level Atlanta Center
Wed 07:49:32 PM 34.5589 -85.7389 46° Northeast 251 289 27,000  Level Atlanta Center
Wed 07:50:32 PM 34.6078 -85.6692 50° Northeast 251 289 27,000  Level Atlanta Center
Wed 07:51:32 PM 34.6589 -85.6044 46° Northeast 258 297 27,000  Level Atlanta Center
Wed 07:52:32 PM 34.7097 -85.5372 47° Northeast 264 304 27,000  Level Atlanta Center
Wed 07:53:32 PM 34.7606 -85.4672 49° Northeast 264 304 27,000  Level Atlanta Center
Wed 07:54:32 PM 34.8094 -85.3997 49° Northeast 264 304 27,000  Level Atlanta Center
Wed 07:55:32 PM 34.8581 -85.3322 49° Northeast 264 304 27,000  Level Atlanta Center
Wed 07:56:32 PM 34.9089 -85.2672 46° Northeast 264 304 27,000  Level Atlanta Center
Wed 07:57:32 PM 34.9575 -85.1994 49° Northeast 264 304 27,000  Level Atlanta Center
Wed 07:58:32 PM 35.0061 -85.1317 49° Northeast 264 304 27,000  Level Atlanta Center
Wed 07:59:32 PM 35.0589 -85.0639 46° Northeast 264 304 27,000  Level Atlanta Center
Wed 08:00:32 PM 35.1094 -84.9933 49° Northeast 264 304 27,000  Level Atlanta Center
Wed 08:01:32 PM 35.1581 -84.9253 49° Northeast 264 304 27,000  Level Atlanta Center
Wed 08:02:32 PM 35.2064 -84.8572 49° Northeast 264 304 27,000  Level Atlanta Center
Wed 08:03:32 PM 35.2569 -84.7867 49° Northeast 264 304 27,000  Level Atlanta Center
Wed 08:04:32 PM 35.3075 -84.7183 48° Northeast 264 304 27,000  Level Atlanta Center
Wed 08:05:32 PM 35.3600 -84.6500 47° Northeast 264 304 27,000  Level Atlanta Center
Wed 08:06:32 PM 35.4106 -84.5764 50° Northeast 264 304 27,000  Level Atlanta Center
Wed 08:07:32 PM 35.4608 -84.5053 49° Northeast 264 304 27,000  Level Atlanta Center
Wed 08:08:32 PM 35.5172 -84.4444 41° Northeast 264 304 27,000  Level Atlanta Center
Wed 08:09:32 PM 35.5800 -84.3886 36° Northeast 264 304 27,000  Level Atlanta Center
Wed 08:10:32 PM 35.6450 -84.3325 35° Northeast 274 315 27,000  Level Atlanta Center
Wed 08:11:32 PM 35.7117 -84.2842 30° Northeast 274 315 27,000 -150 Level Atlanta Center
Wed 08:12:32 PM 35.7808 -84.2333 31° Northeast 280 322 26,700 -400 Descending Atlanta Center
Wed 08:13:32 PM 35.8497 -84.1822 31° Northeast 280 322 26,200 -350 Descending Atlanta Center
Wed 08:14:32 PM 35.9186 -84.1311 31° Northeast 280 322 26,000 -100 Descending Atlanta Center
Wed 08:15:32 PM 35.9914 -84.0850 27° Northeast 280 322 26,000  Level Atlanta Center
Wed 08:16:32 PM 36.0625 -84.0361 29° Northeast 285 328 26,000  Level Atlanta Center
Wed 08:17:32 PM 36.1292 -83.9900 29° Northeast 285 328 26,000  Level Atlanta Center
Wed 08:18:32 PM 36.1958 -83.9408 31° Northeast 285 328 26,000  Level Atlanta Center
Wed 08:19:32 PM 36.2625 -83.8919 31° Northeast 280 322 26,000  Level Atlanta Center
Wed 08:20:32 PM 36.3250 -83.8247 41° Northeast 273 314 26,000 250 Level Atlanta Center
Wed 08:21:32 PM 36.3792 -83.7575 45° Northeast 265 305 26,500 450 Climbing Atlanta Center
Wed 08:22:32 PM 36.4333 -83.7006 40° Northeast 260 299 26,900 238 Climbing Atlanta Center
Wed 08:23:38 PM 36.4861 -83.6239 49° Northeast 264 304 27,000 47 Climbing Indianapolis Center
Wed 08:24:40 PM 36.5258 -83.5547 54° Northeast 268 308 27,000  Level Indianapolis Center
Wed 08:25:41 PM 36.5675 -83.4783 56° Northeast 266 306 27,000  Level Indianapolis Center
Wed 08:26:43 PM 36.6164 -83.3867 56° Northeast 272 313 27,000  Level Indianapolis Center
Wed 08:27:45 PM 36.6581 -83.3081 57° Northeast 272 313 27,000  Level Indianapolis Center
Wed 08:28:47 PM 36.6997 -83.2308 56° Northeast 270 311 27,000  Level Indianapolis Center
Wed 08:29:49 PM 36.7403 -83.1531 57° Northeast 268 308 27,000  Level Indianapolis Center
Wed 08:30:51 PM 36.7817 -83.0747 57° Northeast 271 312 27,000  Level Indianapolis Center
Wed 08:31:53 PM 36.8256 -82.9822 59° Northeast 270 311 27,000  Level Indianapolis Center
Wed 08:32:55 PM 36.8344 -82.8950 83° East 262 302 27,000  Level Indianapolis Center
Wed 08:33:56 PM 36.8483 -82.8056 79° East 268 308 27,000  Level Indianapolis Center
Wed 08:34:58 PM 36.8625 -82.7203 78° East 257 296 27,000  Level Indianapolis Center
Wed 08:36:00 PM 36.8772 -82.6169 80° East 259 298 27,000  Level Indianapolis Center
Wed 08:37:02 PM 36.8933 -82.5278 77° East 263 303 27,000  Level Indianapolis Center
Wed 08:38:04 PM 36.9092 -82.4372 78° East 267 307 27,000  Level Indianapolis Center
Wed 08:39:05 PM 36.9289 -82.3481 75° East 266 306 27,000  Level Indianapolis Center
Wed 08:40:07 PM 36.9528 -82.2575 72° East 271 312 27,000  Level Indianapolis Center
Wed 08:41:09 PM 36.9800 -82.1683 69° East 273 314 27,000  Level Indianapolis Center
Wed 08:42:11 PM 37.0192 -82.0692 64° Northeast 272 313 27,000  Level Indianapolis Center
Wed 08:43:13 PM 37.0575 -81.9875 60° Northeast 273 314 27,000  Level Indianapolis Center
Wed 08:44:14 PM 37.0956 -81.9053 60° Northeast 274 315 27,000 -390 Level Indianapolis Center
Wed 08:45:16 PM 37.1322 -81.8192 62° Northeast 280 322 26,200 -1,306 Descending Indianapolis Center
Wed 08:46:18 PM 37.1714 -81.7222 63° Northeast 309 356 24,300 -1,935 Descending Indianapolis Center
Wed 08:47:20 PM 37.2175 -81.6267 59° Northeast 317 365 22,200 -1,951 Descending Indianapolis Center
Wed 08:48:21 PM 37.2711 -81.5153 59° Northeast 317 365 20,300 -1,707 Descending Indianapolis Center
Wed 08:49:23 PM 37.3111 -81.4217 62° Northeast 301 346 18,700 -1,452 Descending Indianapolis Center
Wed 08:50:25 PM 37.3447 -81.3272 66° East 303 349 17,300 -1,500 Descending Indianapolis Center
Wed 08:51:27 PM 37.3797 -81.2406 63° Northeast 289 333 15,600 -1,854 Descending Indianapolis Center
Wed 08:52:28 PM 37.4267 -81.1708 50° Northeast 274 315 13,500 -2,390 Descending Indianapolis Center
Wed 08:53:30 PM 37.5025 -81.1153 30° Northeast 270 311 10,700 -2,226 Descending Indianapolis Center
Wed 08:54:32 PM 37.5656 -81.1286 350° North 246 283 8,900 -1,597 Descending Indianapolis Center
Wed 08:55:34 PM 37.6283 -81.1614 338° Northwest 247 284 7,400 -1,452 Descending Indianapolis Center

Login

Don't have an account? Register now (free) for customized features, flight alerts, and more!